Time;durP1;ratioP1;P1;durP2;ratioP2;P2;SDS_P1;SDS_P2;PMS_P1;PMS_P2;Temp;Humidity;BMP_temperature;BMP_pressure;BME280_temperature;BME280_humidity;BME280_pressure;Samples;Min_cycle;Max_cycle;Signal;HPM_P1;HPM_P2
2023/10/12 00:02:39;;;;;;;1.27;0.50;;;10.30;99.90;;;;;;1957183;72;26959;-90
2023/10/12 00:05:29;;;;;;;7.33;1.10;;;10.30;99.90;;;;;;1941838;73;25210;-90
2023/10/12 00:08:30;;;;;;;5.30;1.20;;;10.30;99.90;;;;;;1886054;75;25218;-89
2023/10/12 00:11:19;;;;;;;7.93;1.43;;;10.30;99.90;;;;;;1861785;75;25755;-89
2023/10/12 00:14:04;;;;;;;11.33;1.27;;;10.30;99.90;;;;;;1891729;75;25292;-93
2023/10/12 00:16:53;;;;;;;3.50;0.97;;;10.20;99.90;;;;;;1867543;75;25676;-90
2023/10/12 00:22:28;;;;;;;4.57;0.90;;;10.30;99.90;;;;;;1909770;74;26937;-89
2023/10/12 00:25:17;;;;;;;9.87;1.73;;;10.40;99.90;;;;;;1879571;75;25333;-90
2023/10/12 00:28:07;;;;;;;5.37;1.27;;;10.30;99.90;;;;;;1889727;75;25214;-91
2023/10/12 00:30:57;;;;;;;5.83;1.23;;;10.20;99.90;;;;;;1886932;75;25295;-90
2023/10/12 00:36:39;;;;;;;5.57;1.20;;;10.20;99.90;;;;;;1941668;72;26998;-90
2023/10/12 00:39:35;;;;;;;6.60;1.17;;;10.20;99.90;;;;;;1918619;73;25729;-89
2023/10/12 00:45:19;;;;;;;9.13;1.43;;;10.30;99.90;;;;;;1947129;72;27455;-90
2023/10/12 00:48:06;;;;;;;5.60;1.30;;;10.20;99.90;;;;;;1929037;72;25243;-90
2023/10/12 00:50:56;;;;;;;7.73;1.00;;;10.20;99.90;;;;;;1936915;73;25697;-89
2023/10/12 00:53:55;;;;;;;9.67;1.17;;;10.10;99.90;;;;;;1931505;72;25221;-91
2023/10/12 00:56:36;;;;;;;4.27;1.30;;;10.20;99.90;;;;;;1907295;75;25188;-91
2023/10/12 00:59:22;;;;;;;6.73;1.37;;;10.20;99.90;;;;;;1934568;73;25262;-91
2023/10/12 01:02:12;;;;;;;7.03;1.60;;;10.10;99.90;;;;;;1933387;72;25172;-91
2023/10/12 01:07:46;;;;;;;6.57;1.20;;;10.10;99.90;;;;;;1995003;71;27209;-90
2023/10/12 01:10:40;;;;;;;6.20;1.20;;;10.10;99.90;;;;;;1920532;73;25345;-90
2023/10/12 01:13:33;;;;;;;10.80;1.40;;;10.10;99.90;;;;;;1939157;73;25658;-90
2023/10/12 01:16:22;;;;;;;7.00;1.30;;;10.10;99.90;;;;;;1935895;72;25304;-90
2023/10/12 01:19:20;;;;;;;8.27;1.23;;;10.10;99.90;;;;;;1936133;72;25276;-90
2023/10/12 01:22:07;;;;;;;13.80;1.30;;;10.10;99.90;;;;;;1928446;72;25307;-90
2023/10/12 01:28:12;;;;;;;8.80;1.47;;;10.10;99.90;;;;;;1989208;71;26723;-89
2023/10/12 01:31:00;;;;;;;4.97;1.17;;;10.00;99.90;;;;;;1954104;72;25223;-91
2023/10/12 01:36:43;;;;;;;10.13;1.77;;;9.90;99.90;;;;;;1945440;72;27470;-90
2023/10/12 01:39:38;;;;;;;7.53;1.10;;;10.00;99.90;;;;;;1922896;73;25202;-89
2023/10/12 01:42:22;;;;;;;7.53;1.10;;;9.90;99.90;;;;;;1920324;73;25370;-90
2023/10/12 01:45:18;;;;;;;4.77;1.30;;;10.00;99.90;;;;;;1910166;73;25609;-91
2023/10/12 01:48:11;;;;;;;9.53;1.53;;;10.00;99.90;;;;;;1872345;75;25313;-89
2023/10/12 01:51:02;;;;;;;5.57;1.00;;;10.00;99.90;;;;;;1835447;77;25342;-89
2023/10/12 01:53:49;;;;;;;4.17;0.90;;;9.90;99.90;;;;;;1859089;75;25898;-89
2023/10/12 01:56:38;;;;;;;2.37;0.83;;;9.90;99.90;;;;;;1838693;77;25405;-91
2023/10/12 01:59:26;;;;;;;8.80;1.20;;;9.90;99.90;;;;;;1866630;75;25245;-90
2023/10/12 02:02:14;;;;;;;5.57;1.20;;;9.90;99.90;;;;;;1870224;75;25321;-89
2023/10/12 02:05:04;;;;;;;9.40;1.70;;;9.90;99.90;;;;;;1875533;75;25447;-91
2023/10/12 02:07:53;;;;;;;5.50;1.30;;;9.90;99.90;;;;;;1882184;75;25280;-91
2023/10/12 02:10:44;;;;;;;5.10;1.03;;;9.80;99.90;;;;;;1867037;75;25709;-91
2023/10/12 02:16:12;;;;;;;9.20;1.10;;;9.80;99.90;;;;;;1889877;74;26993;-89
2023/10/12 02:21:59;;;;;;;7.80;1.20;;;9.80;99.90;;;;;;1948206;72;27020;-89
2023/10/12 02:24:42;;;;;;;9.57;1.20;;;9.70;99.90;;;;;;1922706;73;25236;-91
2023/10/12 02:27:31;;;;;;;5.30;1.13;;;9.80;99.90;;;;;;1926368;73;25284;-91
2023/10/12 02:30:23;;;;;;;8.27;1.10;;;9.80;99.90;;;;;;1930374;73;25354;-92
2023/10/12 02:33:17;;;;;;;6.93;1.37;;;9.70;99.90;;;;;;1924162;73;25198;-90
2023/10/12 02:36:06;;;;;;;5.20;1.10;;;9.70;99.90;;;;;;1854111;75;25276;-91
2023/10/12 02:38:53;;;;;;;5.40;0.90;;;9.70;99.90;;;;;;1879427;76;25707;-91
2023/10/12 02:41:50;;;;;;;9.27;1.23;;;9.70;99.90;;;;;;1928029;73;25300;-91
2023/10/12 02:44:34;;;;;;;4.00;0.90;;;9.60;99.90;;;;;;1905217;74;25183;-91
2023/10/12 02:47:24;;;;;;;8.00;1.00;;;9.60;99.90;;;;;;1907593;74;25245;-91
2023/10/12 02:53:08;;;;;;;5.87;1.10;;;9.60;99.90;;;;;;1940237;72;27677;-90
2023/10/12 02:55:51;;;;;;;11.90;1.40;;;9.60;99.90;;;;;;1921394;73;25270;-90
2023/10/12 02:58:44;;;;;;;5.20;1.20;;;9.60;99.90;;;;;;1939462;73;25214;-90
2023/10/12 03:04:13;;;;;;;7.00;1.30;;;9.70;99.90;;;;;;1928728;72;27078;-90
2023/10/12 03:07:10;;;;;;;5.80;1.10;;;9.70;99.90;;;;;;1907154;75;25231;-91
2023/10/12 03:09:58;;;;;;;2.53;0.90;;;9.60;99.90;;;;;;1886542;75;25280;-91
2023/10/12 03:12:44;;;;;;;4.50;0.97;;;9.60;99.90;;;;;;1907816;75;25271;-90
2023/10/12 03:15:41;;;;;;;6.00;1.23;;;9.60;99.90;;;;;;1885949;75;25683;-89
2023/10/12 03:18:26;;;;;;;10.47;1.30;;;9.60;99.90;;;;;;1904930;75;25265;-89
2023/10/12 03:21:14;;;;;;;2.53;0.70;;;9.60;99.90;;;;;;1903546;74;25158;-89
2023/10/12 03:24:05;;;;;;;3.77;1.00;;;9.50;99.90;;;;;;1892768;75;25219;-90
2023/10/12 03:27:10;;;;;;;5.23;1.50;;;9.60;99.90;;;;;;1901220;75;25198;-90
2023/10/12 03:29:54;;;;;;;6.53;1.50;;;9.60;99.90;;;;;;1893374;75;25363;-90
2023/10/12 03:32:41;;;;;;;12.77;1.30;;;9.60;99.90;;;;;;1897185;75;25222;-90
2023/10/12 03:35:37;;;;;;;6.13;1.00;;;9.50;99.90;;;;;;1890183;75;25275;-90
2023/10/12 03:38:25;;;;;;;5.67;1.10;;;9.50;99.90;;;;;;1897101;75;25225;-90
2023/10/12 03:44:11;;;;;;;2.10;0.90;;;9.50;99.90;;;;;;1954348;72;27055;-89
2023/10/12 03:46:59;;;;;;;4.53;1.00;;;9.50;99.90;;;;;;1890065;75;25329;-89
2023/10/12 03:49:58;;;;;;;6.63;1.20;;;9.40;99.90;;;;;;1894951;74;25299;-90
2023/10/12 03:52:52;;;;;;;6.27;1.20;;;9.50;99.90;;;;;;1888769;75;25769;-89
2023/10/12 03:55:48;;;;;;;5.97;1.10;;;9.50;99.90;;;;;;1901736;75;25242;-89
2023/10/12 03:58:38;;;;;;;7.97;1.40;;;9.50;99.90;;;;;;1899510;75;25343;-89
2023/10/12 04:01:25;;;;;;;5.77;1.20;;;9.50;99.90;;;;;;1887529;73;25255;-90
2023/10/12 04:04:21;;;;;;;4.20;1.03;;;9.50;99.90;;;;;;1896451;75;25800;-90
2023/10/12 04:10:11;;;;;;;4.70;1.00;;;9.50;99.90;;;;;;1942135;72;27110;-90
2023/10/12 04:12:53;;;;;;;7.50;1.20;;;9.60;99.90;;;;;;1921578;73;25322;-90
2023/10/12 04:16:08;;;;;;;4.60;0.97;;;9.50;99.90;;;;;;1933648;73;25312;-89
2023/10/12 04:18:32;;;;;;;2.73;0.80;;;9.50;99.90;;;;;;1920496;73;25226;-89
2023/10/12 04:21:22;;;;;;;1.77;0.83;;;9.60;99.90;;;;;;1934107;73;25674;-89
2023/10/12 04:27:44;;;;;;;3.20;0.70;;;9.60;99.90;;;;;;1910334;73;25602;-89
2023/10/12 04:33:24;;;;;;;4.23;1.43;;;9.60;99.90;;;;;;1989718;71;27075;-89
2023/10/12 04:39:11;;;;;;;4.80;0.80;;;9.60;99.90;;;;;;1925360;72;27623;-89
2023/10/12 04:42:01;;;;;;;6.97;1.07;;;9.60;99.90;;;;;;1846028;76;25307;-90
2023/10/12 04:44:52;;;;;;;6.30;0.97;;;9.50;99.90;;;;;;1837510;76;25296;-89
2023/10/12 04:47:35;;;;;;;4.57;0.90;;;9.50;99.90;;;;;;1897541;75;25794;-90
2023/10/12 04:50:43;;;;;;;3.80;0.87;;;9.50;99.90;;;;;;1894833;75;25192;-90
2023/10/12 04:53:35;;;;;;;1.30;0.80;;;9.50;99.90;;;;;;1898841;75;25242;-90
2023/10/12 04:56:18;;;;;;;2.33;0.80;;;9.50;99.90;;;;;;1891183;75;25279;-91
2023/10/12 04:59:16;;;;;;;4.13;0.97;;;9.50;99.90;;;;;;1888440;75;25228;-90
2023/10/12 05:02:27;;;;;;;5.60;0.80;;;9.50;99.90;;;;;;1896555;75;25372;-90
2023/10/12 05:08:01;;;;;;;4.93;0.90;;;9.50;99.90;;;;;;1897600;75;25247;-90
2023/10/12 05:10:49;;;;;;;3.17;0.87;;;9.40;99.90;;;;;;1900853;75;25290;-91
2023/10/12 05:16:26;;;;;;;5.47;0.90;;;9.40;99.90;;;;;;1926697;74;27051;-90
2023/10/12 05:19:14;;;;;;;4.00;0.70;;;9.40;99.90;;;;;;1908859;74;25287;-89
2023/10/12 05:22:03;;;;;;;5.17;1.03;;;9.40;99.90;;;;;;1904128;73;25688;-89
2023/10/12 05:24:53;;;;;;;2.03;0.80;;;9.40;99.90;;;;;;1898713;74;25836;-89
2023/10/12 05:28:03;;;;;;;2.43;0.90;;;9.30;99.90;;;;;;1900053;73;25260;-90
2023/10/12 05:30:37;;;;;;;3.10;0.97;;;9.30;99.90;;;;;;1898173;73;25240;-90
2023/10/12 05:33:38;;;;;;;1.83;0.77;;;9.30;99.90;;;;;;1903376;73;25278;-89
2023/10/12 05:36:28;;;;;;;2.50;0.67;;;9.30;99.90;;;;;;1895942;74;25322;-89
2023/10/12 05:39:17;;;;;;;1.93;0.63;;;9.40;99.90;;;;;;1903770;73;25285;-90
2023/10/12 05:42:07;;;;;;;5.00;0.90;;;9.40;99.90;;;;;;1858694;75;25906;-90
2023/10/12 05:45:21;;;;;;;3.13;0.80;;;9.40;99.90;;;;;;1827497;77;25348;-90
2023/10/12 05:50:30;;;;;;;1.90;0.60;;;9.30;99.90;;;;;;1915147;72;27665;-91
2023/10/12 05:56:04;;;;;;;1.97;1.00;;;9.30;99.90;;;;;;1950429;72;27280;-90
2023/10/12 06:23:05;;;;;;;3.40;0.90;;;9.30;99.90;;;;;;1869129;75;27740;-92
2023/10/12 06:28:44;;;;;;;10.47;0.90;;;9.50;99.90;;;;;;1940574;72;27116;-90
2023/10/12 06:31:33;;;;;;;0.47;0.47;;;9.50;99.90;;;;;;1930399;73;25262;-90
2023/10/12 06:34:23;;;;;;;10.67;1.70;;;9.50;99.90;;;;;;1938502;73;25677;-90
2023/10/12 06:37:30;;;;;;;4.93;1.00;;;9.60;99.90;;;;;;1935369;73;25698;-92
2023/10/12 06:40:37;;;;;;;7.27;1.00;;;9.50;99.90;;;;;;1928536;73;25277;-90
2023/10/12 06:46:18;;;;;;;1.33;0.97;;;9.60;99.90;;;;;;1877116;74;25285;-90
2023/10/12 06:49:06;;;;;;;2.57;0.93;;;9.70;99.90;;;;;;1916162;73;25236;-90
2023/10/12 06:52:00;;;;;;;2.53;0.90;;;9.80;99.90;;;;;;1914231;73;25207;-90
2023/10/12 06:54:49;;;;;;;4.97;0.90;;;10.00;99.90;;;;;;1833693;76;25330;-90
2023/10/12 06:57:42;;;;;;;1.30;0.60;;;10.00;99.90;;;;;;1913385;73;25254;-90
2023/10/12 07:00:34;;;;;;;7.70;0.87;;;10.00;99.90;;;;;;1889640;73;25190;-90
2023/10/12 07:03:22;;;;;;;3.10;0.70;;;10.10;99.90;;;;;;1912438;73;25682;-90
2023/10/12 07:06:14;;;;;;;1.87;0.80;;;10.20;99.90;;;;;;1906918;73;25230;-90
2023/10/12 07:09:01;;;;;;;1.73;0.70;;;10.20;99.90;;;;;;1909279;73;25231;-90
2023/10/12 07:11:49;;;;;;;1.83;0.73;;;10.30;99.90;;;;;;1889246;73;25680;-90
2023/10/12 07:14:42;;;;;;;1.30;0.70;;;10.40;99.90;;;;;;1903517;73;25273;-90
2023/10/12 07:34:18;;;;;;;0.53;0.50;;;10.80;99.90;;;;;;1941759;73;25332;-90
2023/10/12 07:37:05;;;;;;;5.63;0.77;;;10.80;99.90;;;;;;1919290;73;25253;-90
2023/10/12 07:39:55;;;;;;;3.67;0.70;;;11.00;99.90;;;;;;1930244;72;25296;-90
2023/10/12 07:42:46;;;;;;;2.27;0.67;;;11.10;99.90;;;;;;1918648;73;25315;-90
2023/10/12 07:45:40;;;;;;;0.60;0.60;;;11.10;99.90;;;;;;1918729;73;25236;-90
2023/10/12 07:48:31;;;;;;;1.03;0.57;;;11.10;99.90;;;;;;1931622;73;25265;-90
2023/10/12 07:51:24;;;;;;;1.80;0.43;;;11.20;99.90;;;;;;1926989;73;25675;-91
2023/10/12 07:54:42;;;;;;;1.53;0.60;;;11.20;99.90;;;;;;1955203;72;25619;-90
2023/10/12 07:57:01;;;;;;;0.53;0.40;;;11.30;99.90;;;;;;1926802;72;25309;-90
2023/10/12 08:14:53;;;;;;;5.97;0.63;;;11.50;99.90;;;;;;1900692;74;27160;-90
2023/10/12 08:17:45;;;;;;;3.20;0.63;;;11.90;99.90;;;;;;1868875;75;25261;-90
2023/10/12 08:20:57;;;;;;;7.47;0.60;;;12.10;99.90;;;;;;1862874;75;25274;-90
2023/10/12 08:26:47;;;;;;;6.67;0.63;;;12.00;99.90;;;;;;1953016;72;27119;-90
2023/10/12 08:32:34;;;;;;;8.13;0.80;;;12.00;99.90;;;;;;1916707;73;25783;-91
2023/10/12 08:35:55;;;;;;;15.33;1.13;;;12.20;99.90;;;;;;1916780;73;25283;-91
2023/10/12 08:38:33;;;;;;;5.47;0.90;;;12.20;99.90;;;;;;1922278;73;25697;-90
2023/10/12 08:44:06;;;;;;;3.70;0.50;;;12.10;99.90;;;;;;1959065;72;27092;-90
2023/10/12 08:46:59;;;;;;;8.13;1.10;;;12.30;99.90;;;;;;1920186;73;25193;-91
2023/10/12 08:49:53;;;;;;;6.30;0.80;;;12.40;99.90;;;;;;1938589;73;25249;-92
2023/10/12 08:52:50;;;;;;;5.20;0.63;;;12.40;99.90;;;;;;1916958;73;25221;-91
2023/10/12 08:55:37;;;;;;;0.73;0.40;;;12.40;99.90;;;;;;1927671;73;25311;-91
2023/10/12 09:01:23;;;;;;;8.77;0.80;;;12.50;99.90;;;;;;1943026;72;27014;-91
2023/10/12 09:04:13;;;;;;;7.27;1.00;;;12.40;99.90;;;;;;1946672;73;25276;-91
2023/10/12 09:10:01;;;;;;;8.47;0.70;;;12.60;99.90;;;;;;1950105;72;27076;-91
2023/10/12 09:15:45;;;;;;;15.40;1.20;;;12.60;99.90;;;;;;1947424;72;26982;-90
2023/10/12 09:18:26;;;;;;;4.40;0.67;;;12.70;99.90;;;;;;1935375;72;25226;-92
2023/10/12 09:21:23;;;;;;;1.43;0.73;;;12.60;99.90;;;;;;1922088;72;25670;-92
2023/10/12 09:24:15;;;;;;;0.60;0.40;;;12.70;99.90;;;;;;1919374;73;25312;-92
2023/10/12 09:27:11;;;;;;;2.63;0.50;;;12.80;99.90;;;;;;1927978;73;25161;-92
2023/10/12 09:29:57;;;;;;;1.63;0.70;;;12.70;99.90;;;;;;1957486;72;25799;-92
2023/10/12 09:33:29;;;;;;;2.47;0.40;;;12.80;99.90;;;;;;1940562;72;25224;-92
2023/10/12 09:36:00;;;;;;;0.83;0.43;;;12.90;99.90;;;;;;1936993;72;25728;-93
2023/10/12 09:38:46;;;;;;;0.40;0.33;;;12.80;99.90;;;;;;1933742;73;25238;-92
2023/10/12 09:44:28;;;;;;;0.83;0.70;;;12.80;99.90;;;;;;1950771;72;26978;-91
2023/10/12 09:47:23;;;;;;;3.97;0.70;;;13.00;99.90;;;;;;1916305;73;25226;-91
2023/10/12 09:50:13;;;;;;;2.87;0.53;;;13.00;99.90;;;;;;1947561;73;25709;-91
2023/10/12 09:56:33;;;;;;;1.20;0.50;;;12.90;99.90;;;;;;1953740;71;27203;-91
2023/10/12 10:02:10;;;;;;;0.50;0.50;;;13.00;99.90;;;;;;1955384;72;27063;-92
2023/10/12 10:05:01;;;;;;;2.63;0.50;;;13.20;99.90;;;;;;1920514;73;25258;-92
2023/10/12 10:10:36;;;;;;;1.23;0.70;;;13.20;99.90;;;;;;1893765;75;27062;-90
2023/10/12 10:13:47;;;;;;;1.00;0.77;;;13.20;99.90;;;;;;1844645;77;25208;-91
2023/10/12 10:16:46;;;;;;;0.30;0.30;;;13.20;99.90;;;;;;1849338;76;25244;-91
2023/10/12 10:19:32;;;;;;;3.23;0.80;;;13.20;99.90;;;;;;1850967;76;25371;-91
2023/10/12 10:22:23;;;;;;;0.43;0.43;;;13.10;99.90;;;;;;1837731;77;25345;-91
2023/10/12 10:25:13;;;;;;;2.13;0.60;;;13.20;99.90;;;;;;1837241;76;25238;-91
2023/10/12 10:28:08;;;;;;;1.27;0.77;;;13.20;99.90;;;;;;1845463;77;25268;-92
2023/10/12 10:30:59;;;;;;;0.50;0.40;;;13.20;99.90;;;;;;1842905;77;25321;-92
2023/10/12 10:33:51;;;;;;;0.80;0.80;;;13.20;99.90;;;;;;1827051;76;25297;-91
2023/10/12 10:36:40;;;;;;;0.53;0.53;;;13.20;99.90;;;;;;1834585;76;25280;-91
2023/10/12 10:39:29;;;;;;;3.10;0.50;;;13.30;99.90;;;;;;1846035;77;25252;-91
2023/10/12 10:42:18;;;;;;;0.90;0.57;;;13.20;99.90;;;;;;1848444;76;25812;-91
2023/10/12 10:45:15;;;;;;;2.87;0.70;;;13.20;99.90;;;;;;1828880;76;25302;-91
2023/10/12 10:48:04;;;;;;;0.60;0.60;;;13.30;99.90;;;;;;1852744;76;25254;-91
2023/10/12 10:50:53;;;;;;;1.27;0.60;;;13.30;99.90;;;;;;1851414;76;25188;-91
2023/10/12 10:57:37;;;;;;;3.80;0.80;;;13.20;99.90;;;;;;1979058;71;27537;-90
2023/10/12 11:00:33;;;;;;;0.73;0.73;;;13.30;99.90;;;;;;2021603;69;25332;-91
2023/10/12 11:03:18;;;;;;;0.87;0.57;;;13.40;99.90;;;;;;2029375;70;25235;-91
2023/10/12 11:09:29;;;;;;;5.13;0.80;;;13.40;99.90;;;;;;1976357;71;27028;-90
2023/10/12 11:12:14;;;;;;;0.97;0.70;;;13.40;99.90;;;;;;1968880;70;25161;-90
2023/10/12 11:15:07;;;;;;;3.10;0.40;;;13.50;99.90;;;;;;1926896;73;25159;-91
2023/10/12 11:20:49;;;;;;;2.00;0.70;;;13.10;99.90;;;;;;1943798;72;27029;-91
2023/10/12 11:26:20;;;;;;;0.70;0.50;;;13.00;99.90;;;;;;1942317;72;27069;-91
2023/10/12 11:29:11;;;;;;;0.47;0.47;;;13.10;99.90;;;;;;1916035;74;25226;-91
2023/10/12 11:35:00;;;;;;;2.20;0.80;;;13.30;99.90;;;;;;1949649;72;27450;-91
2023/10/12 11:37:48;;;;;;;0.70;0.70;;;13.30;99.90;;;;;;1920568;73;25236;-91
2023/10/12 11:40:38;;;;;;;0.83;0.60;;;13.40;99.90;;;;;;1921537;73;25295;-90
2023/10/12 11:46:43;;;;;;;0.90;0.30;;;13.30;99.90;;;;;;1948225;72;27519;-91
2023/10/12 11:49:48;;;;;;;2.57;0.60;;;13.40;99.90;;;;;;1921096;73;25321;-91
2023/10/12 11:52:39;;;;;;;2.20;0.50;;;13.40;99.90;;;;;;1929310;73;25239;-90
2023/10/12 11:55:31;;;;;;;5.80;0.70;;;13.30;99.90;;;;;;1919590;73;25158;-90
2023/10/12 11:58:19;;;;;;;5.07;0.90;;;13.30;99.90;;;;;;1932375;73;25641;-91
2023/10/12 12:01:09;;;;;;;1.47;0.70;;;13.40;99.90;;;;;;1926902;73;25202;-91
2023/10/12 12:03:59;;;;;;;0.80;0.60;;;13.40;99.90;;;;;;1937316;73;25244;-90
2023/10/12 12:09:37;;;;;;;1.43;0.50;;;13.40;99.90;;;;;;1943010;72;27518;-90
2023/10/12 12:12:25;;;;;;;1.20;0.63;;;13.30;99.90;;;;;;1935084;73;25225;-91
2023/10/12 12:15:15;;;;;;;0.90;0.70;;;13.20;99.90;;;;;;1920600;73;26637;-90
2023/10/12 12:18:09;;;;;;;2.30;0.80;;;13.20;99.90;;;;;;1921489;73;25367;-91
2023/10/12 12:20:56;;;;;;;0.63;0.63;;;13.30;99.90;;;;;;1931682;73;25174;-91
2023/10/12 12:26:33;;;;;;;2.57;0.80;;;13.50;99.90;;;;;;1963226;72;27659;-91
2023/10/12 12:29:25;;;;;;;0.53;0.43;;;13.40;99.90;;;;;;1885232;74;25308;-91
2023/10/12 12:32:13;;;;;;;3.63;0.47;;;13.40;99.90;;;;;;1909235;75;25209;-90
2023/10/12 12:35:02;;;;;;;2.07;0.60;;;13.30;99.90;;;;;;1904570;74;25713;-91
2023/10/12 12:38:00;;;;;;;1.00;0.70;;;13.20;99.90;;;;;;1900725;74;25256;-90
2023/10/12 12:40:44;;;;;;;0.50;0.50;;;13.20;99.90;;;;;;1903080;75;25312;-90
2023/10/12 12:43:33;;;;;;;1.70;0.67;;;13.00;99.90;;;;;;1926004;73;25764;-91
2023/10/12 12:46:21;;;;;;;2.03;0.80;;;12.90;99.90;;;;;;1933772;73;26461;-90
2023/10/12 12:49:11;;;;;;;1.97;0.80;;;12.90;99.90;;;;;;1931200;73;25247;-91
2023/10/12 12:52:00;;;;;;;2.33;0.90;;;12.80;99.90;;;;;;1922915;73;25325;-91
2023/10/12 12:58:44;;;;;;;2.10;0.80;;;12.80;99.90;;;;;;1979804;71;27014;-91
2023/10/12 13:04:16;;;;;;;3.70;0.87;;;12.70;99.90;;;;;;1937783;72;27004;-90
2023/10/12 13:07:08;;;;;;;1.43;0.67;;;12.60;99.90;;;;;;1905282;74;26467;-92
2023/10/12 13:09:57;;;;;;;0.87;0.60;;;12.50;99.90;;;;;;1892890;74;25282;-93
2023/10/12 13:12:47;;;;;;;1.93;0.60;;;12.40;99.90;;;;;;1933210;73;25232;-90
2023/10/12 13:15:41;;;;;;;0.70;0.53;;;12.40;99.90;;;;;;1910377;73;26481;-90
2023/10/12 13:18:29;;;;;;;1.33;0.70;;;12.40;99.90;;;;;;1904545;74;25238;-90
2023/10/12 13:21:17;;;;;;;3.23;0.63;;;12.40;99.90;;;;;;1901892;74;25307;-92
2023/10/12 13:27:22;;;;;;;2.00;0.90;;;12.20;99.90;;;;;;1969005;71;26632;-90
2023/10/12 13:30:14;;;;;;;3.17;0.70;;;12.20;99.90;;;;;;2023278;70;25741;-91
2023/10/12 13:35:55;;;;;;;1.80;0.80;;;12.00;99.90;;;;;;1955887;72;27019;-90
2023/10/12 13:38:43;;;;;;;4.87;0.90;;;12.00;99.90;;;;;;1942588;73;25249;-91
2023/10/12 13:41:33;;;;;;;1.73;0.60;;;12.00;99.90;;;;;;1943473;73;25205;-91
2023/10/12 13:44:25;;;;;;;1.50;0.80;;;11.90;99.90;;;;;;1916316;74;25745;-91
2023/10/12 13:47:12;;;;;;;1.97;0.90;;;11.90;99.90;;;;;;1912729;74;25709;-90
2023/10/12 13:50:05;;;;;;;3.10;0.40;;;11.90;99.90;;;;;;1909316;75;25317;-90
2023/10/12 13:52:53;;;;;;;1.63;0.80;;;11.90;99.90;;;;;;1900081;74;25802;-90
2023/10/12 13:55:41;;;;;;;3.70;0.90;;;11.90;99.90;;;;;;1904141;74;25286;-90
2023/10/12 13:58:32;;;;;;;2.00;1.13;;;11.90;99.90;;;;;;1861272;76;25241;-90
2023/10/12 14:01:23;;;;;;;3.40;0.90;;;11.90;99.90;;;;;;1827148;77;25712;-91
2023/10/12 14:04:28;;;;;;;0.93;0.83;;;11.90;99.90;;;;;;1827722;77;25202;-90
2023/10/12 14:07:13;;;;;;;2.90;0.70;;;11.90;99.90;;;;;;1857538;76;25318;-90
2023/10/12 14:10:04;;;;;;;4.47;0.73;;;11.90;99.90;;;;;;1829016;77;25275;-90
2023/10/12 14:12:53;;;;;;;5.00;0.83;;;11.90;99.90;;;;;;1845742;77;25322;-90
2023/10/12 14:15:43;;;;;;;1.20;0.60;;;11.90;99.90;;;;;;1841642;76;25282;-90
2023/10/12 14:32:44;;;;;;;4.97;1.10;;;11.90;99.90;;;;;;1963884;72;27069;-90
2023/10/12 14:38:18;;;;;;;1.93;1.00;;;11.80;99.90;;;;;;1947724;72;27060;-91
2023/10/12 14:41:09;;;;;;;1.07;0.70;;;11.70;99.90;;;;;;1933665;73;25282;-90
2023/10/12 14:43:56;;;;;;;1.77;0.80;;;11.70;99.90;;;;;;1889322;74;26911;-89
2023/10/12 15:03:01;;;;;;;2.40;0.80;;;11.60;99.90;;;;;;1950207;72;27549;-91
2023/10/12 15:05:52;;;;;;;1.27;0.80;;;11.60;99.90;;;;;;1859761;76;25263;-91
2023/10/12 15:08:42;;;;;;;5.50;1.20;;;11.60;99.90;;;;;;1846632;76;25317;-91
2023/10/12 15:11:33;;;;;;;1.77;1.10;;;11.60;99.90;;;;;;1871299;76;25262;-91
2023/10/12 15:14:21;;;;;;;2.07;1.00;;;11.50;99.90;;;;;;1821206;78;25354;-89
2023/10/12 15:17:52;;;;;;;1.57;0.70;;;11.50;99.90;;;;;;1917326;73;25875;-91
2023/10/12 15:40:36;;;;;;;6.33;1.40;;;11.40;99.90;;;;;;1938348;73;26908;-92
2023/10/12 15:58:13;;;;;;;2.17;1.27;;;11.20;99.90;;;;;;1948620;72;27660;-91
2023/10/12 16:01:50;;;;;;;2.37;0.93;;;11.10;99.90;;;;;;1918824;73;25720;-90
2023/10/12 16:04:52;;;;;;;7.23;1.83;;;11.10;99.90;;;;;;1916906;73;25765;-91
2023/10/12 16:11:46;;;;;;;3.20;1.73;;;11.00;99.90;;;;;;2027277;69;29183;-90
2023/10/12 16:15:24;;;;;;;3.13;1.27;;;11.00;99.90;;;;;;1981481;71;25282;-91
2023/10/12 16:57:57;;;;;;;2.30;1.20;;;10.80;99.90;;;;;;1875426;75;27086;-89
2023/10/12 17:18:27;;;;;;;2.20;1.40;;;10.40;99.90;;;;;;1963696;73;25263;-91
2023/10/12 17:24:51;;;;;;;2.87;1.20;;;10.40;99.90;;;;;;1969099;71;25686;-91
2023/10/12 18:19:08;;;;;;;1.83;0.90;;;9.80;99.90;;;;;;1947123;72;28420;-91
2023/10/12 18:35:50;;;;;;;3.47;1.10;;;9.50;99.90;;;;;;1948525;71;27005;-90
2023/10/12 19:15:55;;;;;;;3.90;0.97;;;9.10;99.90;;;;;;1787977;78;25738;-91
2023/10/12 20:04:36;;;;;;;2.57;1.00;;;8.30;99.90;;;;;;1806666;77;25316;-93
2023/10/12 21:46:41;;;;;;;5.63;1.37;;;4.40;99.90;;;;;;1932742;72;27191;-89
2023/10/12 22:16:49;;;;;;;3.73;0.93;;;6.30;99.90;;;;;;1920660;72;27067;-89
